createdAt,value
2023-12-02T00:02:08.877Z,-1.33
2023-12-02T00:04:35.493Z,-1.34
2023-12-02T00:07:02.064Z,-1.35
2023-12-02T00:09:28.701Z,-1.33
2023-12-02T00:11:55.394Z,-1.32
2023-12-02T00:14:22.049Z,-1.31
2023-12-02T00:16:48.623Z,-1.29
2023-12-02T00:19:15.270Z,-1.33
2023-12-02T00:21:41.912Z,-1.31
2023-12-02T00:24:08.536Z,-1.39
2023-12-02T00:26:35.577Z,-1.37
2023-12-02T00:29:02.151Z,-1.39
2023-12-02T00:31:28.702Z,-1.41
2023-12-02T00:33:55.353Z,-1.43
2023-12-02T00:36:22.042Z,-1.44
2023-12-02T00:38:48.643Z,-1.48
2023-12-02T00:41:15.182Z,-1.47
2023-12-02T00:43:41.780Z,-1.47
2023-12-02T00:46:08.603Z,-1.48
2023-12-02T00:48:35.429Z,-1.47
2023-12-02T00:51:02.114Z,-1.42
2023-12-02T00:53:28.684Z,-1.39
2023-12-02T00:55:55.233Z,-1.32
2023-12-02T00:58:27.744Z,-1.35
2023-12-02T01:00:58.487Z,-1.35
2023-12-02T01:03:25.061Z,-1.34
2023-12-02T01:05:51.727Z,-1.35
2023-12-02T01:08:18.301Z,-1.33
2023-12-02T01:10:44.867Z,-1.33
2023-12-02T01:13:11.434Z,-1.33
2023-12-02T01:15:38.066Z,-1.36
2023-12-02T01:18:04.763Z,-1.31
2023-12-02T01:20:31.339Z,-1.35
2023-12-02T01:22:57.955Z,-1.39
2023-12-02T01:25:24.698Z,-1.39
2023-12-02T01:27:51.272Z,-1.41
2023-12-02T01:30:17.942Z,-1.40
2023-12-02T01:32:44.548Z,-1.44
2023-12-02T01:35:11.103Z,-1.42
2023-12-02T01:37:38.096Z,-1.39
2023-12-02T01:40:05.066Z,-1.45
2023-12-02T01:42:31.663Z,-1.35
2023-12-02T01:44:58.270Z,-1.36
2023-12-02T01:47:24.843Z,-1.33
2023-12-02T01:49:51.624Z,-1.33
2023-12-02T01:52:18.250Z,-1.28
2023-12-02T01:54:44.798Z,-1.27
2023-12-02T01:57:11.434Z,-1.28
2023-12-02T01:59:40.485Z,-1.28
2023-12-02T02:02:07.358Z,-1.29
2023-12-02T02:04:34.008Z,-1.32
2023-12-02T02:07:00.608Z,-1.32
2023-12-02T02:09:27.229Z,-1.32
2023-12-02T02:11:53.899Z,-1.31
2023-12-02T02:14:20.455Z,-1.28
2023-12-02T02:16:47.017Z,-1.28
2023-12-02T02:19:13.749Z,-1.27
2023-12-02T02:21:40.435Z,-1.26
2023-12-02T02:24:07.067Z,-1.27
2023-12-02T02:26:33.660Z,-1.27
2023-12-02T02:29:00.204Z,-1.31
2023-12-02T02:31:26.763Z,-1.27
2023-12-02T02:33:53.321Z,-1.23
2023-12-02T02:36:19.920Z,-1.25
2023-12-02T02:38:46.442Z,-1.26
2023-12-02T02:41:13.047Z,-1.27
2023-12-02T02:43:39.624Z,-1.27
2023-12-02T02:46:06.863Z,-1.27
2023-12-02T02:48:33.517Z,-1.25
2023-12-02T02:51:00.232Z,-1.23
2023-12-02T02:53:26.841Z,-1.22
2023-12-02T02:55:53.401Z,-1.19
2023-12-02T02:58:20.220Z,-1.23
2023-12-02T03:00:47.202Z,-1.23
2023-12-02T03:03:14.022Z,-1.21
2023-12-02T03:05:40.909Z,-1.20
2023-12-02T03:08:07.696Z,-1.24
2023-12-02T03:10:35.242Z,-1.26
2023-12-02T03:13:02.228Z,-1.25
2023-12-02T03:15:29.156Z,-1.25
2023-12-02T03:17:55.899Z,-1.22
2023-12-02T03:20:22.524Z,-1.24
2023-12-02T03:22:49.087Z,-1.23
2023-12-02T03:25:15.710Z,-1.21
2023-12-02T03:27:42.273Z,-1.18
2023-12-02T03:30:09.330Z,-1.22
2023-12-02T03:32:38.192Z,-1.22
2023-12-02T03:35:05.727Z,-1.22
2023-12-02T03:37:32.268Z,-1.27
2023-12-02T03:39:58.807Z,-1.18
2023-12-02T03:42:25.361Z,-1.15
2023-12-02T03:44:51.971Z,-1.14
2023-12-02T03:47:18.525Z,-1.16
2023-12-02T03:49:45.092Z,-1.14
2023-12-02T03:52:11.658Z,-1.16
2023-12-02T03:54:38.276Z,-1.19
2023-12-02T03:57:05.079Z,-1.22
2023-12-02T03:59:31.636Z,-1.25
2023-12-02T04:01:58.649Z,-1.28
2023-12-02T04:04:25.424Z,-1.26
2023-12-02T04:06:52.052Z,-1.24
2023-12-02T04:09:18.684Z,-1.23
2023-12-02T04:11:48.477Z,-1.25
2023-12-02T04:14:15.085Z,-1.23
2023-12-02T04:16:42.018Z,-1.20
2023-12-02T04:19:11.705Z,-1.17
2023-12-02T04:21:42.459Z,-1.18
2023-12-02T04:24:09.112Z,-1.19
2023-12-02T04:26:36.561Z,-1.19
2023-12-02T04:29:03.158Z,-1.18
2023-12-02T04:31:31.065Z,-1.21
2023-12-02T04:33:57.780Z,-1.20
2023-12-02T04:36:24.466Z,-1.21
2023-12-02T04:38:51.099Z,-1.21
2023-12-02T04:41:17.675Z,-1.24
2023-12-02T04:43:44.590Z,-1.24
2023-12-02T04:46:11.194Z,-1.24
2023-12-02T04:48:37.787Z,-1.24
2023-12-02T04:51:04.662Z,-1.22
2023-12-02T04:53:31.241Z,-1.20
2023-12-02T04:55:57.804Z,-1.17
2023-12-02T04:58:24.361Z,-1.09
2023-12-02T05:00:50.968Z,-1.07
2023-12-02T05:03:17.669Z,-1.08
2023-12-02T05:05:44.934Z,-1.09
2023-12-02T05:08:11.530Z,-1.12
2023-12-02T05:10:38.095Z,-1.13
2023-12-02T05:13:04.669Z,-1.14
2023-12-02T05:15:31.307Z,-1.12
2023-12-02T05:17:57.969Z,-1.11
2023-12-02T05:20:24.559Z,-1.12
2023-12-02T05:22:51.355Z,-1.16
2023-12-02T05:25:17.985Z,-1.15
2023-12-02T05:27:44.585Z,-1.14
2023-12-02T05:30:11.808Z,-1.13
2023-12-02T05:32:38.446Z,-1.13
2023-12-02T05:35:05.531Z,-1.10
2023-12-02T05:37:32.217Z,-1.10
2023-12-02T05:39:58.719Z,-1.07
2023-12-02T05:42:25.385Z,-1.10
2023-12-02T05:44:52.000Z,-1.07
2023-12-02T05:47:18.550Z,-1.06
2023-12-02T05:49:45.077Z,-1.07
2023-12-02T05:52:11.815Z,-1.08
2023-12-02T05:54:38.542Z,-1.07
2023-12-02T05:57:05.414Z,-1.07
2023-12-02T05:59:31.989Z,-1.06
2023-12-02T06:01:58.561Z,-1.03
2023-12-02T06:04:25.154Z,-1.03
2023-12-02T06:06:51.758Z,-1.04
2023-12-02T06:09:18.337Z,-1.04
2023-12-02T06:11:44.949Z,-1.04
2023-12-02T06:14:11.532Z,-1.06
2023-12-02T06:16:38.075Z,-1.06
2023-12-02T06:19:04.826Z,-1.06
2023-12-02T06:21:31.508Z,-1.07
2023-12-02T06:23:58.164Z,-1.08
2023-12-02T06:26:24.741Z,-1.07
2023-12-02T06:28:51.346Z,-1.07
2023-12-02T06:31:17.892Z,-1.05
2023-12-02T06:33:44.585Z,-1.03
2023-12-02T06:36:11.728Z,-1.04
2023-12-02T06:38:38.311Z,-1.04
2023-12-02T06:41:05.049Z,-1.05
2023-12-02T06:43:31.618Z,-1.07
2023-12-02T06:45:58.153Z,-1.08
2023-12-02T06:48:24.793Z,-1.09
2023-12-02T06:50:51.363Z,-1.08
2023-12-02T06:53:17.953Z,-1.08
2023-12-02T06:55:44.498Z,-1.11
2023-12-02T06:58:11.093Z,-1.12
2023-12-02T07:00:37.755Z,-1.10
2023-12-02T07:03:04.390Z,-1.06
2023-12-02T07:05:31.018Z,-1.00
2023-12-02T07:07:57.600Z,-1.00
2023-12-02T07:10:24.186Z,-1.00
2023-12-02T07:12:50.751Z,-1.02
2023-12-02T07:15:17.485Z,-1.04
2023-12-02T07:17:44.129Z,-1.04
2023-12-02T07:20:11.245Z,-1.04
2023-12-02T07:22:37.784Z,-1.05
2023-12-02T07:25:04.844Z,-1.05
2023-12-02T07:27:31.477Z,-1.07
2023-12-02T07:32:27.579Z,-1.08
2023-12-02T07:34:54.282Z,-1.00
2023-12-02T07:37:20.823Z,-1.00
2023-12-02T07:39:47.361Z,-1.00
2023-12-02T07:42:14.115Z,-0.97
2023-12-02T07:44:40.601Z,-0.94
2023-12-02T07:47:07.199Z,-0.91
2023-12-02T07:49:33.817Z,-0.91
2023-12-02T07:52:00.614Z,-0.89
2023-12-02T07:54:27.113Z,-0.89
2023-12-02T07:56:53.600Z,-0.92
2023-12-02T07:59:20.086Z,-0.91
2023-12-02T08:01:46.816Z,-0.93
2023-12-02T08:04:13.506Z,-0.94
2023-12-02T08:06:40.081Z,-0.93
2023-12-02T08:09:06.654Z,-0.91
2023-12-02T08:11:33.163Z,-0.93
2023-12-02T08:13:59.782Z,-0.92
2023-12-02T08:16:26.494Z,-0.90
2023-12-02T08:18:53.399Z,-0.92
2023-12-02T08:21:20.005Z,-0.90
2023-12-02T08:23:46.547Z,-0.85
2023-12-02T08:26:13.144Z,-0.79
2023-12-02T08:28:39.762Z,-0.79
2023-12-02T08:31:06.522Z,-0.78
2023-12-02T08:33:33.125Z,-0.76
2023-12-02T08:35:59.683Z,-0.76
2023-12-02T08:38:26.361Z,-0.79
2023-12-02T08:40:52.934Z,-0.81
2023-12-02T08:43:19.550Z,-0.77
2023-12-02T08:45:46.108Z,-0.75
2023-12-02T08:48:12.803Z,-0.74
2023-12-02T08:50:39.422Z,-0.77
2023-12-02T08:53:06.113Z,-0.77
2023-12-02T08:55:32.732Z,-0.76
2023-12-02T08:57:59.355Z,-0.75
2023-12-02T09:00:25.995Z,-0.68
2023-12-02T09:02:52.689Z,-0.65
2023-12-02T09:05:19.792Z,-0.61
2023-12-02T09:07:46.404Z,-0.60
2023-12-02T09:10:26.780Z,-0.57
2023-12-02T09:12:55.494Z,-0.55
2023-12-02T09:15:22.075Z,-0.55
2023-12-02T09:18:11.013Z,-0.54
2023-12-02T09:20:48.132Z,-0.54
2023-12-02T09:23:16.394Z,-0.50
2023-12-02T09:25:43.658Z,-0.47
2023-12-02T09:28:14.784Z,-0.47
2023-12-02T09:30:41.980Z,-0.47
2023-12-02T09:33:08.905Z,-0.49
2023-12-02T09:35:35.697Z,-0.47
2023-12-02T09:38:03.030Z,-0.49
2023-12-02T09:40:52.202Z,-0.49
2023-12-02T09:43:27.804Z,-0.41
2023-12-02T09:46:18.014Z,-0.30
2023-12-02T09:48:48.101Z,-0.26
2023-12-02T09:51:27.949Z,-0.20
2023-12-02T09:54:13.359Z,-0.18
2023-12-02T09:56:42.480Z,-0.19
2023-12-02T09:59:20.064Z,-0.19
2023-12-02T10:02:09.436Z,-0.17
2023-12-02T10:05:01.182Z,-0.12
2023-12-02T10:07:41.823Z,-0.18
2023-12-02T10:10:09.722Z,-0.14
2023-12-02T10:13:14.134Z,-0.14
2023-12-02T10:15:41.064Z,-0.12
2023-12-02T10:18:14.843Z,-0.05
2023-12-02T10:20:43.124Z,0.00
2023-12-02T10:23:15.730Z,0.00
2023-12-02T10:25:43.579Z,0.04
2023-12-02T10:28:34.055Z,0.03
2023-12-02T10:31:00.868Z,0.06
2023-12-02T10:33:29.057Z,0.10
2023-12-02T10:36:04.139Z,0.09
2023-12-02T10:39:07.646Z,0.11
2023-12-02T10:41:46.857Z,0.11
2023-12-02T10:44:15.017Z,0.09
2023-12-02T10:46:41.710Z,0.14
2023-12-02T10:49:08.550Z,0.14
2023-12-02T10:51:37.538Z,0.16
2023-12-02T10:54:04.682Z,0.16
2023-12-02T10:56:31.389Z,0.13
2023-12-02T10:58:58.136Z,0.20
2023-12-02T11:01:50.555Z,0.23
2023-12-02T11:04:30.236Z,0.27
2023-12-02T11:07:02.872Z,0.31
2023-12-02T11:09:56.716Z,0.37
2023-12-02T11:12:29.193Z,0.42
2023-12-02T11:14:58.996Z,0.45
2023-12-02T11:17:32.049Z,0.44
2023-12-02T11:20:23.234Z,0.46
2023-12-02T11:22:55.541Z,0.48
2023-12-02T11:25:25.092Z,0.45
2023-12-02T11:28:04.466Z,0.46
2023-12-02T11:30:47.595Z,0.49
2023-12-02T11:33:17.283Z,0.48
2023-12-02T11:36:10.108Z,0.44
2023-12-02T11:38:36.826Z,0.37
2023-12-02T11:41:11.086Z,0.34
2023-12-02T11:44:05.141Z,0.34
2023-12-02T11:46:34.158Z,0.38
2023-12-02T11:49:15.989Z,0.42
2023-12-02T11:51:42.605Z,0.42
2023-12-02T11:54:34.371Z,0.41
2023-12-02T11:57:11.824Z,0.35
2023-12-02T12:00:17.160Z,0.31
2023-12-02T12:02:52.261Z,0.28
2023-12-02T12:05:24.861Z,0.28
2023-12-02T12:08:24.245Z,0.27
2023-12-02T12:10:51.683Z,0.28
2023-12-02T12:13:20.621Z,0.29
2023-12-02T12:15:47.387Z,0.25
2023-12-02T12:18:14.211Z,0.23
2023-12-02T12:20:43.383Z,0.28
2023-12-02T12:23:10.083Z,0.31
2023-12-02T12:25:37.787Z,0.42
2023-12-02T12:28:05.009Z,0.47
2023-12-02T12:30:42.491Z,0.55
2023-12-02T12:33:19.508Z,0.60
2023-12-02T12:35:46.410Z,0.63
2023-12-02T12:38:13.102Z,0.65
2023-12-02T12:40:43.053Z,0.66
2023-12-02T12:43:10.273Z,0.63
2023-12-02T12:45:37.976Z,0.63
2023-12-02T12:48:05.953Z,0.62
2023-12-02T12:50:32.894Z,0.63
2023-12-02T12:53:10.184Z,0.56
2023-12-02T12:55:38.485Z,0.48
2023-12-02T12:58:08.579Z,0.47
2023-12-02T13:00:40.260Z,0.58
2023-12-02T13:03:18.662Z,0.61
2023-12-02T13:05:45.447Z,0.66
2023-12-02T13:08:40.730Z,0.68
2023-12-02T13:11:18.602Z,0.73
2023-12-02T13:13:54.084Z,0.83
2023-12-02T13:16:22.641Z,0.87
2023-12-02T13:18:50.504Z,0.85
2023-12-02T13:21:17.633Z,0.83
2023-12-02T13:23:44.729Z,0.77
2023-12-02T13:26:11.425Z,0.72
2023-12-02T13:28:38.197Z,0.63
2023-12-02T13:31:05.420Z,0.54
2023-12-02T13:33:46.608Z,0.52
2023-12-02T13:36:13.793Z,0.53
2023-12-02T13:38:50.505Z,0.58
2023-12-02T13:41:20.334Z,0.58
2023-12-02T13:43:52.025Z,0.52
2023-12-02T13:46:18.974Z,0.44
2023-12-02T13:49:03.810Z,0.37
2023-12-02T13:51:31.422Z,0.27
2023-12-02T13:54:07.899Z,0.23
2023-12-02T13:56:46.181Z,0.25
2023-12-02T13:59:20.044Z,0.21
2023-12-02T14:01:55.151Z,0.15
2023-12-02T14:05:00.342Z,0.04
2023-12-02T14:07:30.129Z,-0.05
2023-12-02T14:09:56.883Z,-0.12
2023-12-02T14:12:49.403Z,-0.19
2023-12-02T14:15:34.994Z,-0.27
2023-12-02T14:18:23.633Z,-0.34
2023-12-02T14:20:50.360Z,-0.40
2023-12-02T14:23:27.389Z,-0.49
2023-12-02T14:26:18.510Z,-0.42
2023-12-02T14:29:06.566Z,-0.38
2023-12-02T14:31:36.220Z,-0.37
2023-12-02T14:34:31.317Z,-0.42
2023-12-02T14:37:04.116Z,-0.50
2023-12-02T14:39:55.402Z,-0.58
2023-12-02T14:42:32.196Z,-0.67
2023-12-02T14:44:59.398Z,-0.67
2023-12-02T14:47:26.193Z,-0.68
2023-12-02T14:49:52.890Z,-0.68
2023-12-02T14:52:20.169Z,-0.65
2023-12-02T14:54:47.508Z,-0.64
2023-12-02T14:57:18.781Z,-0.63
2023-12-02T14:59:46.338Z,-0.63
2023-12-02T15:02:34.831Z,-0.60
2023-12-02T15:05:05.563Z,-0.57
2023-12-02T15:07:33.200Z,-0.57
2023-12-02T15:10:00.484Z,-0.58
2023-12-02T15:12:27.255Z,-0.57
2023-12-02T15:14:55.859Z,-0.60
2023-12-02T15:17:22.871Z,-0.62
2023-12-02T15:19:49.630Z,-0.63
2023-12-02T15:22:19.666Z,-0.63
2023-12-02T15:24:46.448Z,-0.59
2023-12-02T15:27:13.162Z,-0.61
2023-12-02T15:29:39.918Z,-0.61
2023-12-02T15:32:06.706Z,-0.60
2023-12-02T15:34:34.521Z,-0.57
2023-12-02T15:37:01.339Z,-0.55
2023-12-02T15:39:28.137Z,-0.53
2023-12-02T15:41:54.856Z,-0.48
2023-12-02T15:44:21.617Z,-0.49
2023-12-02T15:46:48.297Z,-0.53
2023-12-02T15:49:15.115Z,-0.55
2023-12-02T15:51:41.925Z,-0.54
2023-12-02T15:54:08.744Z,-0.50
2023-12-02T15:56:35.451Z,-0.47
2023-12-02T15:59:02.163Z,-0.47
2023-12-02T16:01:28.886Z,-0.50
2023-12-02T16:03:56.016Z,-0.49
2023-12-02T16:06:23.239Z,-0.51
2023-12-02T16:08:50.245Z,-0.45
2023-12-02T16:11:16.954Z,-0.44
2023-12-02T16:13:43.771Z,-0.45
2023-12-02T16:16:14.732Z,-0.50
2023-12-02T16:18:43.105Z,-0.57
2023-12-02T16:21:11.189Z,-0.64
2023-12-02T16:23:37.980Z,-0.65
2023-12-02T16:26:04.903Z,-0.67
2023-12-02T16:28:34.598Z,-0.70
2023-12-02T16:31:03.996Z,-0.65
2023-12-02T16:33:30.861Z,-0.60
2023-12-02T16:35:57.662Z,-0.54
2023-12-02T16:38:24.414Z,-0.51
2023-12-02T16:40:52.696Z,-0.51
2023-12-02T16:43:20.244Z,-0.52
2023-12-02T16:45:47.303Z,-0.50
2023-12-02T16:48:14.823Z,-0.51
2023-12-02T16:50:45.490Z,-0.53
2023-12-02T16:53:12.752Z,-0.58
2023-12-02T16:55:39.472Z,-0.60
2023-12-02T16:58:07.257Z,-0.63
2023-12-02T17:00:36.917Z,-0.61
2023-12-02T17:03:03.881Z,-0.53
2023-12-02T17:05:33.671Z,-0.49
2023-12-02T17:08:04.159Z,-0.47
2023-12-02T17:10:43.072Z,-0.49
2023-12-02T17:13:26.122Z,-0.55
2023-12-02T17:15:53.217Z,-0.61
2023-12-02T17:19:02.080Z,-0.58
2023-12-02T17:21:31.713Z,-0.53
2023-12-02T17:23:58.973Z,-0.56
2023-12-02T17:26:28.078Z,-0.60
2023-12-02T17:28:55.060Z,-0.60
2023-12-02T17:31:21.797Z,-0.63
2023-12-02T17:33:48.529Z,-0.68
2023-12-02T17:36:15.735Z,-0.74
2023-12-02T17:38:42.536Z,-0.74
2023-12-02T17:41:09.275Z,-0.70
2023-12-02T17:43:35.958Z,-0.68
2023-12-02T17:46:02.802Z,-0.67
2023-12-02T17:48:29.681Z,-0.70
2023-12-02T17:50:56.504Z,-0.72
2023-12-02T17:53:23.830Z,-0.71
2023-12-02T17:55:50.644Z,-0.81
2023-12-02T17:58:17.310Z,-0.86
2023-12-02T18:00:44.695Z,-0.86
2023-12-02T18:03:11.878Z,-0.86
2023-12-02T18:05:38.706Z,-0.86
2023-12-02T18:08:05.404Z,-0.85
2023-12-02T18:10:32.153Z,-0.88
2023-12-02T18:12:58.853Z,-0.85
2023-12-02T18:15:25.656Z,-0.82
2023-12-02T18:17:52.451Z,-0.76
2023-12-02T18:20:19.197Z,-0.77
2023-12-02T18:22:46.437Z,-0.74
2023-12-02T18:25:13.152Z,-0.74
2023-12-02T18:27:39.920Z,-0.77
2023-12-02T18:30:07.321Z,-0.77
2023-12-02T18:32:34.144Z,-0.80
2023-12-02T18:35:00.914Z,-0.82
2023-12-02T18:37:27.654Z,-0.83
2023-12-02T18:39:54.962Z,-0.80
2023-12-02T18:42:21.739Z,-0.79
2023-12-02T18:44:48.493Z,-0.81
2023-12-02T18:47:15.233Z,-0.85
2023-12-02T18:49:41.929Z,-0.86
2023-12-02T18:52:08.741Z,-0.90
2023-12-02T18:54:35.495Z,-1.01
2023-12-02T18:57:02.248Z,-1.05
2023-12-02T18:59:29.350Z,-1.07
2023-12-02T19:01:56.148Z,-1.09
2023-12-02T19:04:22.884Z,-1.14
2023-12-02T19:06:49.590Z,-1.11
2023-12-02T19:09:16.372Z,-1.11
2023-12-02T19:11:43.167Z,-1.01
2023-12-02T19:14:09.966Z,-0.96
2023-12-02T19:16:36.738Z,-0.95
2023-12-02T19:19:04.076Z,-0.96
2023-12-02T19:21:33.524Z,-1.02
2023-12-02T19:24:00.305Z,-0.97
2023-12-02T19:26:27.001Z,-0.99
2023-12-02T19:28:53.852Z,-0.97
2023-12-02T19:31:20.551Z,-0.90
2023-12-02T19:33:47.377Z,-0.88
2023-12-02T19:36:14.304Z,-0.94
2023-12-02T19:38:41.341Z,-1.00
2023-12-02T19:41:08.319Z,-1.06
2023-12-02T19:43:35.087Z,-1.08
2023-12-02T19:46:01.824Z,-1.08
2023-12-02T19:48:28.688Z,-1.07
2023-12-02T19:50:55.435Z,-1.09
2023-12-02T19:53:22.081Z,-1.07
2023-12-02T19:55:48.802Z,-1.07
2023-12-02T19:58:15.607Z,-1.06
2023-12-02T20:00:42.376Z,-1.08
2023-12-02T20:03:09.261Z,-1.03
2023-12-02T20:05:36.094Z,-0.99
2023-12-02T20:08:02.862Z,-0.94
2023-12-02T20:10:29.518Z,-0.89
2023-12-02T20:12:56.270Z,-0.91
2023-12-02T20:15:23.095Z,-0.88
2023-12-02T20:17:49.867Z,-0.86
2023-12-02T20:20:16.691Z,-0.85
2023-12-02T20:22:43.430Z,-0.88
2023-12-02T20:25:10.156Z,-0.90
2023-12-02T20:27:36.941Z,-0.92
2023-12-02T20:30:04.046Z,-1.02
2023-12-02T20:32:30.976Z,-1.10
2023-12-02T20:34:57.811Z,-1.17
2023-12-02T20:37:24.544Z,-1.22
2023-12-02T20:39:51.348Z,-1.27
2023-12-02T20:42:18.137Z,-1.26
2023-12-02T20:44:44.875Z,-1.28
2023-12-02T20:47:12.178Z,-1.27
2023-12-02T20:49:39.017Z,-1.24
2023-12-02T20:52:06.858Z,-1.22
2023-12-02T20:54:33.737Z,-1.18
2023-12-02T20:57:00.478Z,-1.17
2023-12-02T20:59:27.156Z,-1.25
2023-12-02T21:01:53.944Z,-1.27
2023-12-02T21:04:20.690Z,-1.28
2023-12-02T21:06:47.484Z,-1.25
2023-12-02T21:09:14.363Z,-1.26
2023-12-02T21:11:41.062Z,-1.26
2023-12-02T21:14:07.811Z,-1.31
2023-12-02T21:16:34.496Z,-1.29
2023-12-02T21:19:01.241Z,-1.33
2023-12-02T21:21:27.973Z,-1.31
2023-12-02T21:23:54.685Z,-1.29
2023-12-02T21:26:21.330Z,-1.27
2023-12-02T21:28:48.927Z,-1.26
2023-12-02T21:31:15.770Z,-1.25
2023-12-02T21:33:42.613Z,-1.25
2023-12-02T21:36:09.885Z,-1.29
2023-12-02T21:38:43.470Z,-1.24
2023-12-02T21:41:12.277Z,-1.26
2023-12-02T21:43:38.996Z,-1.32
2023-12-02T21:46:06.007Z,-1.33
2023-12-02T21:48:42.716Z,-1.29
2023-12-02T21:51:33.056Z,-1.30
2023-12-02T21:54:09.425Z,-1.35
2023-12-02T21:56:46.268Z,-1.36
2023-12-02T21:59:22.455Z,-1.33
2023-12-02T22:01:55.770Z,-1.29
2023-12-02T22:04:23.460Z,-1.20
2023-12-02T22:06:52.270Z,-1.18
2023-12-02T22:09:21.859Z,-1.18
2023-12-02T22:11:48.494Z,-1.17
2023-12-02T22:14:23.447Z,-1.13
2023-12-02T22:17:00.347Z,-1.09
2023-12-02T22:19:27.188Z,-1.03
2023-12-02T22:21:54.254Z,-0.99
2023-12-02T22:24:21.228Z,-0.96
2023-12-02T22:26:48.037Z,-0.94
2023-12-02T22:29:27.213Z,-0.88
2023-12-02T22:31:54.494Z,-0.88
2023-12-02T22:34:22.423Z,-0.98
2023-12-02T22:36:49.302Z,-1.03
2023-12-02T22:39:28.605Z,-1.06
2023-12-02T22:41:56.365Z,-1.04
2023-12-02T22:44:23.637Z,-1.04
2023-12-02T22:46:59.209Z,-1.06
2023-12-02T22:49:27.386Z,-1.05
2023-12-02T22:51:54.808Z,-1.09
2023-12-02T22:54:28.483Z,-1.09
2023-12-02T22:56:55.664Z,-1.11
2023-12-02T22:59:22.316Z,-1.13
2023-12-02T23:01:50.028Z,-1.18
2023-12-02T23:04:38.927Z,-1.22
2023-12-02T23:07:12.000Z,-1.26
2023-12-02T23:09:51.785Z,-1.27
2023-12-02T23:12:31.099Z,-1.28
2023-12-02T23:15:29.903Z,-1.28
2023-12-02T23:17:56.743Z,-1.26
2023-12-02T23:20:33.592Z,-1.27
2023-12-02T23:23:00.439Z,-1.27
2023-12-02T23:25:27.468Z,-1.24
2023-12-02T23:27:54.469Z,-1.24
2023-12-02T23:30:21.548Z,-1.25
2023-12-02T23:32:48.614Z,-1.28
2023-12-02T23:35:20.486Z,-1.29
2023-12-02T23:37:48.118Z,-1.28
2023-12-02T23:40:50.325Z,-1.28
2023-12-02T23:43:35.546Z,-1.21
2023-12-02T23:46:03.814Z,-1.20
2023-12-02T23:48:30.644Z,-1.17
2023-12-02T23:50:57.454Z,-1.14
2023-12-02T23:53:24.251Z,-1.08
2023-12-02T23:55:51.587Z,-1.06
2023-12-02T23:58:18.394Z,-1.07
